Have a Safe July 4th! 

Flight Track Log - Related Links

Times and Time Zones

All times are in EDT time to prevent confusion due to time zone crossing. See the JZA8293 flight status page for this flight to view local times or setup timezone preferences in your user account.

Time Position Orientation Groundspeed Altitude Reporting Facility
EDT Latitude Longitude Course Direction KTS MPH feet Rate Location/Type
Fri 08:09:44 AM 49.8833 -97.2333 287° West 10 12 700  Level Winnipeg Center
Fri 08:10:44 AM 49.8833 -97.2333 287° West 80 92 700 1,200 Level Winnipeg Center
Fri 08:11:44 AM 49.9167 -97.2833 316° Northwest 180 207 3,100 2,650 Climbing Winnipeg Center
Fri 08:12:44 AM 49.9500 -97.3500 308° West 240 276 6,000 2,900 Climbing Winnipeg Center
Fri 08:13:44 AM 49.9667 -97.4667 283° West 270 311 8,900 2,850 Climbing Winnipeg Center
Fri 08:14:44 AM 50.0000 -97.5833 294° West 280 322 11,700 2,700 Climbing Winnipeg Center
Fri 08:15:44 AM 50.0167 -97.7000 283° West 300 345 14,300 2,700 Climbing Winnipeg Center
Fri 08:16:00 AM 50.0783 -98.0411 287° West  Level FlightAware Approximate
Fri 08:16:44 AM 50.0500 -97.8500 289° West 310 357 17,100  Level Winnipeg Center
Fri 08:17:44 AM 50.0667 -97.9500 285° West 320 368 18,700 1,850 Climbing Winnipeg Center
Fri 08:18:44 AM 50.0833 -98.1167 279° West 330 380 20,800 1,950 Climbing Winnipeg Center
Fri 08:19:44 AM 50.1167 -98.2500 291° West 340 391 22,600 1,800 Climbing Winnipeg Center
Fri 08:20:44 AM 50.1333 -98.4000 280° West 350 403 24,400 1,700 Climbing Winnipeg Center
Fri 08:21:44 AM 50.1667 -98.5333 291° West 350 403 26,000 1,400 Climbing Winnipeg Center
Fri 08:22:44 AM 50.2000 -98.6833 289° West 360 414 27,200 1,200 Climbing Winnipeg Center
Fri 08:23:44 AM 50.2333 -98.8500 287° West 370 426 28,400 1,100 Climbing Winnipeg Center
Fri 08:24:44 AM 50.2667 -99.0000 289° West 370 426 29,400 1,050 Climbing Winnipeg Center
Fri 08:25:44 AM 50.3000 -99.1667 287° West 380 437 30,500 900 Climbing Winnipeg Center
Fri 08:26:44 AM 50.3167 -99.3167 280° West 380 437 31,200 700 Climbing Winnipeg Center
Fri 08:27:44 AM 50.3500 -99.4833 287° West 390 449 31,900 700 Climbing Winnipeg Center
Fri 08:28:44 AM 50.3833 -99.6500 287° West 390 449 32,600 750 Climbing Winnipeg Center
Fri 08:29:44 AM 50.4167 -99.8000 289° West 400 460 33,400 700 Climbing Winnipeg Center
Fri 08:30:44 AM 50.4667 -99.9667 295° West 390 449 34,000 300 Climbing Winnipeg Center
Fri 08:31:44 AM 50.5000 -100.1167 289° West 400 460 34,000  Level Winnipeg Center
Fri 08:32:44 AM 50.5500 -100.2833 295° West 400 460 34,000  Level Winnipeg Center
Fri 08:33:44 AM 50.6000 -100.4500 295° West 400 460 34,000  Level Winnipeg Center
Fri 08:34:44 AM 50.6500 -100.5833 301° West 400 460 34,000  Level Winnipeg Center
Fri 08:35:44 AM 50.6833 -100.7667 286° West 390 449 34,000  Level Winnipeg Center
Fri 08:36:44 AM 50.7333 -100.9000 301° West 400 460 34,000  Level Winnipeg Center
Fri 08:37:44 AM 50.7833 -101.0667 295° West 400 460 34,000  Level Winnipeg Center
Fri 08:38:44 AM 50.8167 -101.2333 288° West 390 449 34,000  Level Winnipeg Center
Fri 08:39:44 AM 50.8667 -101.4000 295° West 390 449 34,000  Level Winnipeg Center
Fri 08:40:44 AM 50.9167 -101.5333 301° West 390 449 34,000  Level Winnipeg Center
Fri 08:41:44 AM 50.9500 -101.7000 288° West 390 449 34,000  Level Winnipeg Center
Fri 08:42:44 AM 51.0000 -101.8667 296° West 380 437 34,000  Level Winnipeg Center
Fri 08:43:44 AM 51.0333 -102.0333 288° West 380 437 34,000  Level Winnipeg Center
Fri 08:44:44 AM 51.0833 -102.1667 301° West 370 426 34,000  Level Winnipeg Center
Fri 08:45:44 AM 51.1333 -102.3333 296° West 370 426 34,000  Level Winnipeg Center
Fri 08:46:44 AM 51.1500 -102.4667 281° West 360 414 34,000  Level Winnipeg Center
Fri 08:47:44 AM 51.2000 -102.6000 301° West 360 414 34,000  Level Winnipeg Center
Fri 08:48:44 AM 51.2500 -102.7500 298° West 360 414 34,000  Level Winnipeg Center
Fri 08:49:44 AM 51.2667 -102.8833 281° West 350 403 34,000  Level Winnipeg Center
Fri 08:50:44 AM 51.3167 -103.0500 296° West 350 403 34,000  Level Winnipeg Center
Fri 08:51:44 AM 51.3500 -103.1833 292° West 350 403 34,000  Level Winnipeg Center
Fri 08:52:44 AM 51.3833 -103.3333 290° West 350 403 34,000  Level Winnipeg Center
Fri 08:53:44 AM 51.4167 -103.4667 292° West 350 403 34,000  Level Winnipeg Center
Fri 08:54:44 AM 51.4667 -103.6333 296° West 350 403 34,000  Level Winnipeg Center
Fri 08:55:44 AM 51.4833 -103.7667 281° West 360 414 34,000  Level Winnipeg Center
Fri 08:56:44 AM 51.5333 -103.9167 298° West 350 403 34,000  Level Winnipeg Center
Fri 08:57:44 AM 51.5667 -104.0500 292° West 360 414 34,000  Level Winnipeg Center
Fri 08:58:44 AM 51.6000 -104.2167 288° West 360 414 34,000  Level Winnipeg Center
Fri 08:59:44 AM 51.6333 -104.3667 290° West 350 403 34,000  Level Winnipeg Center
Fri 09:00:44 AM 51.6833 -104.5000 301° West 350 403 34,000 -850 Level Winnipeg Center
Fri 09:01:44 AM 51.7167 -104.6833 286° West 350 403 32,300 -1,850 Descending Winnipeg Center
Fri 09:02:44 AM 51.7500 -104.8167 292° West 370 426 30,300 -2,000 Descending Winnipeg Center
Fri 09:03:44 AM 51.7833 -104.9833 288° West 380 437 28,300 -1,950 Descending Winnipeg Center
Fri 09:04:44 AM 51.8167 -105.1333 290° West 360 414 26,400 -2,100 Descending Winnipeg Center
Fri 09:05:44 AM 51.8667 -105.2667 301° West 350 403 24,100 -2,600 Descending Winnipeg Center
Fri 09:06:44 AM 51.8833 -105.4167 280° West 350 403 21,200 -3,000 Descending Winnipeg Center
Fri 09:07:44 AM 51.9167 -105.5833 288° West 350 403 18,100 -2,950 Descending Winnipeg Center
Fri 09:08:44 AM 51.9667 -105.7333 298° West 340 391 15,300 -3,050 Descending Winnipeg Center
Fri 09:09:44 AM 51.9833 -105.8500 283° West 340 391 12,000 -2,500 Descending Winnipeg Center
Fri 09:10:44 AM 52.0333 -105.9833 301° West 320 368 10,300 -1,950 Descending Winnipeg Center
Fri 09:11:44 AM 52.0500 -106.1000 283° West 280 322 8,100 -2,100 Descending Winnipeg Center
Fri 09:12:44 AM 52.0833 -106.2167 295° West 270 311 6,100 -1,550 Descending Winnipeg Center
Fri 09:13:44 AM 52.1000 -106.3333 283° West 260 299 5,000 -1,200 Descending Winnipeg Center
Fri 09:14:44 AM 52.1333 -106.4500 295° West 260 299 3,700 -1,300 Descending Winnipeg Center

Login

Don't have an account? Register now (free) for customized features, flight alerts, and more!